sensor_id;sensor_type;location;lat;lon;timestamp;temperature;humidity
48535;DHT22;34323;52.022;5.686;2023-04-29T00:00:13;15.50;99.90
48535;DHT22;34323;52.022;5.686;2023-04-29T00:02:39;15.70;99.90
48535;DHT22;34323;52.022;5.686;2023-04-29T00:05:05;15.70;99.90
48535;DHT22;34323;52.022;5.686;2023-04-29T00:07:31;15.70;99.90
48535;DHT22;34323;52.022;5.686;2023-04-29T00:10:00;15.80;99.90
48535;DHT22;34323;52.022;5.686;2023-04-29T00:12:26;16.00;99.90
48535;DHT22;34323;52.022;5.686;2023-04-29T00:14:54;16.00;99.90
48535;DHT22;34323;52.022;5.686;2023-04-29T00:17:20;16.10;99.90
48535;DHT22;34323;52.022;5.686;2023-04-29T00:19:46;16.10;99.90
48535;DHT22;34323;52.022;5.686;2023-04-29T00:22:12;15.90;99.90
48535;DHT22;34323;52.022;5.686;2023-04-29T00:24:37;15.60;99.90
48535;DHT22;34323;52.022;5.686;2023-04-29T00:27:03;15.50;99.90
48535;DHT22;34323;52.022;5.686;2023-04-29T00:29:30;15.40;99.90
48535;DHT22;34323;52.022;5.686;2023-04-29T00:31:55;15.40;99.90
48535;DHT22;34323;52.022;5.686;2023-04-29T00:34:21;15.40;99.90
48535;DHT22;34323;52.022;5.686;2023-04-29T00:36:47;15.20;99.90
48535;DHT22;34323;52.022;5.686;2023-04-29T00:39:13;15.50;99.90
48535;DHT22;34323;52.022;5.686;2023-04-29T00:41:39;15.50;99.90
48535;DHT22;34323;52.022;5.686;2023-04-29T00:44:05;15.60;99.90
48535;DHT22;34323;52.022;5.686;2023-04-29T00:46:32;15.90;99.90
48535;DHT22;34323;52.022;5.686;2023-04-29T00:48:58;16.10;99.90
48535;DHT22;34323;52.022;5.686;2023-04-29T00:51:25;16.10;99.90
48535;DHT22;34323;52.022;5.686;2023-04-29T00:53:51;16.00;99.90
48535;DHT22;34323;52.022;5.686;2023-04-29T00:56:18;16.00;99.90
48535;DHT22;34323;52.022;5.686;2023-04-29T00:58:45;16.10;99.90
48535;DHT22;34323;52.022;5.686;2023-04-29T01:01:15;16.20;99.90
48535;DHT22;34323;52.022;5.686;2023-04-29T01:03:41;16.20;99.90
48535;DHT22;34323;52.022;5.686;2023-04-29T01:11:54;16.20;99.90
48535;DHT22;34323;52.022;5.686;2023-04-29T01:14:23;16.10;99.90
48535;DHT22;34323;52.022;5.686;2023-04-29T01:16:58;16.00;99.90
48535;DHT22;34323;52.022;5.686;2023-04-29T01:19:44;16.10;99.90
48535;DHT22;34323;52.022;5.686;2023-04-29T01:22:12;16.30;99.90
48535;DHT22;34323;52.022;5.686;2023-04-29T01:24:39;16.10;99.90
48535;DHT22;34323;52.022;5.686;2023-04-29T01:28:07;16.00;99.90
48535;DHT22;34323;52.022;5.686;2023-04-29T01:30:41;15.80;99.90
48535;DHT22;34323;52.022;5.686;2023-04-29T01:35:52;15.70;99.90
48535;DHT22;34323;52.022;5.686;2023-04-29T01:38:52;15.70;99.90
48535;DHT22;34323;52.022;5.686;2023-04-29T01:44:07;16.10;99.90
48535;DHT22;34323;52.022;5.686;2023-04-29T01:46:35;16.20;99.90
48535;DHT22;34323;52.022;5.686;2023-04-29T01:49:01;16.30;99.90
48535;DHT22;34323;52.022;5.686;2023-04-29T01:51:27;16.30;99.90
48535;DHT22;34323;52.022;5.686;2023-04-29T01:53:54;16.30;99.90
48535;DHT22;34323;52.022;5.686;2023-04-29T01:56:19;16.20;99.90
48535;DHT22;34323;52.022;5.686;2023-04-29T01:58:45;16.20;99.90
48535;DHT22;34323;52.022;5.686;2023-04-29T02:01:10;16.20;99.90
48535;DHT22;34323;52.022;5.686;2023-04-29T02:03:37;16.20;99.90
48535;DHT22;34323;52.022;5.686;2023-04-29T02:06:03;16.20;99.90
48535;DHT22;34323;52.022;5.686;2023-04-29T02:08:31;16.20;99.90
48535;DHT22;34323;52.022;5.686;2023-04-29T02:10:58;16.20;99.90
48535;DHT22;34323;52.022;5.686;2023-04-29T02:13:24;16.10;99.90
48535;DHT22;34323;52.022;5.686;2023-04-29T02:15:50;16.20;99.90
48535;DHT22;34323;52.022;5.686;2023-04-29T02:18:15;16.40;99.90
48535;DHT22;34323;52.022;5.686;2023-04-29T02:20:41;16.20;99.90
48535;DHT22;34323;52.022;5.686;2023-04-29T02:23:07;16.20;99.90
48535;DHT22;34323;52.022;5.686;2023-04-29T02:25:32;16.10;99.90
48535;DHT22;34323;52.022;5.686;2023-04-29T02:27:58;15.80;99.90
48535;DHT22;34323;52.022;5.686;2023-04-29T02:30:23;15.70;99.90
48535;DHT22;34323;52.022;5.686;2023-04-29T02:32:49;15.90;99.90
48535;DHT22;34323;52.022;5.686;2023-04-29T02:35:15;16.10;99.90
48535;DHT22;34323;52.022;5.686;2023-04-29T02:37:41;16.20;99.90
48535;DHT22;34323;52.022;5.686;2023-04-29T02:40:07;16.10;99.90
48535;DHT22;34323;52.022;5.686;2023-04-29T02:42:32;16.10;99.90
48535;DHT22;34323;52.022;5.686;2023-04-29T02:44:58;16.30;99.90
48535;DHT22;34323;52.022;5.686;2023-04-29T02:47:23;16.30;99.90
48535;DHT22;34323;52.022;5.686;2023-04-29T02:49:49;16.40;99.90
48535;DHT22;34323;52.022;5.686;2023-04-29T02:52:15;16.50;99.90
48535;DHT22;34323;52.022;5.686;2023-04-29T02:54:41;16.60;99.90
48535;DHT22;34323;52.022;5.686;2023-04-29T02:57:07;16.50;99.90
48535;DHT22;34323;52.022;5.686;2023-04-29T02:59:33;16.70;99.90
48535;DHT22;34323;52.022;5.686;2023-04-29T03:01:59;16.70;99.90
48535;DHT22;34323;52.022;5.686;2023-04-29T03:04:26;16.90;99.90
48535;DHT22;34323;52.022;5.686;2023-04-29T03:06:54;16.90;99.90
48535;DHT22;34323;52.022;5.686;2023-04-29T03:09:21;16.90;99.90
48535;DHT22;34323;52.022;5.686;2023-04-29T03:11:47;16.70;99.90
48535;DHT22;34323;52.022;5.686;2023-04-29T03:14:13;16.20;99.90
48535;DHT22;34323;52.022;5.686;2023-04-29T03:16:38;16.00;99.90
48535;DHT22;34323;52.022;5.686;2023-04-29T03:19:04;16.10;99.90
48535;DHT22;34323;52.022;5.686;2023-04-29T03:21:29;16.40;99.90
48535;DHT22;34323;52.022;5.686;2023-04-29T03:23:55;16.30;99.90
48535;DHT22;34323;52.022;5.686;2023-04-29T03:26:20;16.30;99.90
48535;DHT22;34323;52.022;5.686;2023-04-29T03:28:48;16.40;99.90
48535;DHT22;34323;52.022;5.686;2023-04-29T03:31:14;16.40;99.90
48535;DHT22;34323;52.022;5.686;2023-04-29T03:33:40;16.40;99.90
48535;DHT22;34323;52.022;5.686;2023-04-29T03:36:06;16.40;99.90
48535;DHT22;34323;52.022;5.686;2023-04-29T03:38:33;16.20;99.90
48535;DHT22;34323;52.022;5.686;2023-04-29T03:40:58;16.10;99.90
48535;DHT22;34323;52.022;5.686;2023-04-29T03:43:24;16.10;99.90
48535;DHT22;34323;52.022;5.686;2023-04-29T03:45:49;16.20;99.90
48535;DHT22;34323;52.022;5.686;2023-04-29T03:48:15;16.20;99.90
48535;DHT22;34323;52.022;5.686;2023-04-29T03:50:41;16.10;99.90
48535;DHT22;34323;52.022;5.686;2023-04-29T03:53:06;16.10;99.90
48535;DHT22;34323;52.022;5.686;2023-04-29T03:55:32;16.00;99.90
48535;DHT22;34323;52.022;5.686;2023-04-29T03:57:58;16.00;99.90
48535;DHT22;34323;52.022;5.686;2023-04-29T04:00:24;15.90;99.90
48535;DHT22;34323;52.022;5.686;2023-04-29T04:02:51;15.80;99.90
48535;DHT22;34323;52.022;5.686;2023-04-29T04:05:16;15.30;99.90
48535;DHT22;34323;52.022;5.686;2023-04-29T04:07:45;15.40;99.90
48535;DHT22;34323;52.022;5.686;2023-04-29T04:10:11;15.50;99.90
48535;DHT22;34323;52.022;5.686;2023-04-29T04:12:37;15.70;99.90
48535;DHT22;34323;52.022;5.686;2023-04-29T04:15:03;15.80;99.90
48535;DHT22;34323;52.022;5.686;2023-04-29T04:17:28;16.10;99.90
48535;DHT22;34323;52.022;5.686;2023-04-29T04:19:54;16.20;99.90
48535;DHT22;34323;52.022;5.686;2023-04-29T04:22:20;16.10;99.90
48535;DHT22;34323;52.022;5.686;2023-04-29T04:24:45;16.00;99.90
48535;DHT22;34323;52.022;5.686;2023-04-29T04:27:11;16.00;99.90
48535;DHT22;34323;52.022;5.686;2023-04-29T04:29:37;16.00;99.90
48535;DHT22;34323;52.022;5.686;2023-04-29T04:32:03;15.80;99.90
48535;DHT22;34323;52.022;5.686;2023-04-29T04:34:29;16.00;99.90
48535;DHT22;34323;52.022;5.686;2023-04-29T04:36:55;16.10;99.90
48535;DHT22;34323;52.022;5.686;2023-04-29T04:39:20;16.20;99.90
48535;DHT22;34323;52.022;5.686;2023-04-29T04:41:46;16.30;99.90
48535;DHT22;34323;52.022;5.686;2023-04-29T04:44:11;16.30;99.90
48535;DHT22;34323;52.022;5.686;2023-04-29T04:46:38;16.30;99.90
48535;DHT22;34323;52.022;5.686;2023-04-29T04:49:04;16.30;99.90
48535;DHT22;34323;52.022;5.686;2023-04-29T04:51:30;16.10;99.90
48535;DHT22;34323;52.022;5.686;2023-04-29T04:53:55;15.90;99.90
48535;DHT22;34323;52.022;5.686;2023-04-29T04:56:21;15.90;99.90
48535;DHT22;34323;52.022;5.686;2023-04-29T04:58:46;16.00;99.90
48535;DHT22;34323;52.022;5.686;2023-04-29T05:01:12;16.10;99.90
48535;DHT22;34323;52.022;5.686;2023-04-29T05:03:37;16.30;99.90
48535;DHT22;34323;52.022;5.686;2023-04-29T05:06:03;16.20;99.90
48535;DHT22;34323;52.022;5.686;2023-04-29T05:08:29;16.20;99.90
48535;DHT22;34323;52.022;5.686;2023-04-29T05:10:54;16.40;99.90
48535;DHT22;34323;52.022;5.686;2023-04-29T05:13:20;16.30;99.90
48535;DHT22;34323;52.022;5.686;2023-04-29T05:15:46;16.20;99.90
48535;DHT22;34323;52.022;5.686;2023-04-29T05:18:12;16.30;99.90
48535;DHT22;34323;52.022;5.686;2023-04-29T05:20:37;16.30;99.90
48535;DHT22;34323;52.022;5.686;2023-04-29T05:23:03;16.40;99.90
48535;DHT22;34323;52.022;5.686;2023-04-29T05:25:29;16.40;99.90
48535;DHT22;34323;52.022;5.686;2023-04-29T05:27:54;16.50;99.90
48535;DHT22;34323;52.022;5.686;2023-04-29T05:30:20;16.80;99.90
48535;DHT22;34323;52.022;5.686;2023-04-29T05:32:46;16.90;99.90
48535;DHT22;34323;52.022;5.686;2023-04-29T05:35:13;16.90;99.90
48535;DHT22;34323;52.022;5.686;2023-04-29T05:37:38;16.80;99.90
48535;DHT22;34323;52.022;5.686;2023-04-29T05:40:04;16.50;99.90
48535;DHT22;34323;52.022;5.686;2023-04-29T05:42:30;16.10;99.90
48535;DHT22;34323;52.022;5.686;2023-04-29T05:44:56;16.00;99.90
48535;DHT22;34323;52.022;5.686;2023-04-29T05:47:22;16.00;99.90
48535;DHT22;34323;52.022;5.686;2023-04-29T05:49:47;16.10;99.90
48535;DHT22;34323;52.022;5.686;2023-04-29T05:52:13;16.10;99.90
48535;DHT22;34323;52.022;5.686;2023-04-29T05:54:39;16.30;99.90
48535;DHT22;34323;52.022;5.686;2023-04-29T05:57:04;16.30;99.90
48535;DHT22;34323;52.022;5.686;2023-04-29T05:59:31;16.20;99.90
48535;DHT22;34323;52.022;5.686;2023-04-29T06:01:57;16.10;99.90
48535;DHT22;34323;52.022;5.686;2023-04-29T06:04:23;16.30;99.90
48535;DHT22;34323;52.022;5.686;2023-04-29T06:06:50;16.50;99.90
48535;DHT22;34323;52.022;5.686;2023-04-29T06:09:16;16.60;99.90
48535;DHT22;34323;52.022;5.686;2023-04-29T06:11:42;16.60;99.90
48535;DHT22;34323;52.022;5.686;2023-04-29T06:14:09;16.50;99.90
48535;DHT22;34323;52.022;5.686;2023-04-29T06:16:35;16.50;99.90
48535;DHT22;34323;52.022;5.686;2023-04-29T06:19:00;16.60;99.90
48535;DHT22;34323;52.022;5.686;2023-04-29T06:21:27;16.60;99.90
48535;DHT22;34323;52.022;5.686;2023-04-29T06:23:53;16.50;99.90
48535;DHT22;34323;52.022;5.686;2023-04-29T06:26:19;16.60;99.90
48535;DHT22;34323;52.022;5.686;2023-04-29T06:28:46;16.50;99.90
48535;DHT22;34323;52.022;5.686;2023-04-29T06:31:11;16.60;99.90
48535;DHT22;34323;52.022;5.686;2023-04-29T06:33:37;16.60;99.90
48535;DHT22;34323;52.022;5.686;2023-04-29T06:36:03;16.40;99.90
48535;DHT22;34323;52.022;5.686;2023-04-29T06:38:29;16.40;99.90
48535;DHT22;34323;52.022;5.686;2023-04-29T06:40:55;16.70;99.90
48535;DHT22;34323;52.022;5.686;2023-04-29T06:43:27;16.80;99.90
48535;DHT22;34323;52.022;5.686;2023-04-29T06:45:53;16.40;99.90
48535;DHT22;34323;52.022;5.686;2023-04-29T06:48:18;16.50;99.90
48535;DHT22;34323;52.022;5.686;2023-04-29T06:50:51;16.50;99.90
48535;DHT22;34323;52.022;5.686;2023-04-29T06:53:17;16.70;99.90
48535;DHT22;34323;52.022;5.686;2023-04-29T06:55:42;16.70;99.90
48535;DHT22;34323;52.022;5.686;2023-04-29T06:58:09;16.70;99.90
48535;DHT22;34323;52.022;5.686;2023-04-29T07:00:34;16.70;99.90
48535;DHT22;34323;52.022;5.686;2023-04-29T07:03:00;16.80;99.90
48535;DHT22;34323;52.022;5.686;2023-04-29T07:05:25;16.90;99.90
48535;DHT22;34323;52.022;5.686;2023-04-29T07:07:51;16.90;99.90
48535;DHT22;34323;52.022;5.686;2023-04-29T07:10:17;16.60;99.90
48535;DHT22;34323;52.022;5.686;2023-04-29T07:12:42;16.60;99.90
48535;DHT22;34323;52.022;5.686;2023-04-29T07:15:08;16.90;99.90
48535;DHT22;34323;52.022;5.686;2023-04-29T07:17:34;16.80;99.90
48535;DHT22;34323;52.022;5.686;2023-04-29T07:19:59;16.90;99.90
48535;DHT22;34323;52.022;5.686;2023-04-29T07:22:25;16.90;99.90
48535;DHT22;34323;52.022;5.686;2023-04-29T07:24:54;16.60;99.90
48535;DHT22;34323;52.022;5.686;2023-04-29T07:27:20;16.70;99.90
48535;DHT22;34323;52.022;5.686;2023-04-29T07:29:45;17.00;99.90
48535;DHT22;34323;52.022;5.686;2023-04-29T07:32:11;17.10;99.90
48535;DHT22;34323;52.022;5.686;2023-04-29T07:34:37;17.10;99.90
48535;DHT22;34323;52.022;5.686;2023-04-29T07:37:02;17.30;99.90
48535;DHT22;34323;52.022;5.686;2023-04-29T07:39:28;17.30;99.90
48535;DHT22;34323;52.022;5.686;2023-04-29T07:41:54;17.40;99.90
48535;DHT22;34323;52.022;5.686;2023-04-29T07:44:20;17.50;99.90
48535;DHT22;34323;52.022;5.686;2023-04-29T07:46:46;17.70;99.90
48535;DHT22;34323;52.022;5.686;2023-04-29T07:49:12;17.80;99.90
48535;DHT22;34323;52.022;5.686;2023-04-29T07:51:40;17.90;99.90
48535;DHT22;34323;52.022;5.686;2023-04-29T07:54:06;18.00;99.90
48535;DHT22;34323;52.022;5.686;2023-04-29T07:56:32;18.20;99.90
48535;DHT22;34323;52.022;5.686;2023-04-29T07:58:59;18.40;99.90
48535;DHT22;34323;52.022;5.686;2023-04-29T08:01:24;18.30;99.90
48535;DHT22;34323;52.022;5.686;2023-04-29T08:03:50;18.20;99.90
48535;DHT22;34323;52.022;5.686;2023-04-29T08:06:15;18.20;99.90
48535;DHT22;34323;52.022;5.686;2023-04-29T08:08:42;18.10;99.90
48535;DHT22;34323;52.022;5.686;2023-04-29T08:11:17;17.80;99.90
48535;DHT22;34323;52.022;5.686;2023-04-29T08:13:43;17.80;99.90
48535;DHT22;34323;52.022;5.686;2023-04-29T08:16:10;17.90;99.90
48535;DHT22;34323;52.022;5.686;2023-04-29T08:18:35;18.10;99.90
48535;DHT22;34323;52.022;5.686;2023-04-29T08:21:01;17.90;99.90
48535;DHT22;34323;52.022;5.686;2023-04-29T08:23:27;17.90;99.90
48535;DHT22;34323;52.022;5.686;2023-04-29T08:25:52;17.90;99.90
48535;DHT22;34323;52.022;5.686;2023-04-29T08:28:20;17.80;99.90
48535;DHT22;34323;52.022;5.686;2023-04-29T08:30:46;17.80;99.90
48535;DHT22;34323;52.022;5.686;2023-04-29T08:33:12;18.20;99.90
48535;DHT22;34323;52.022;5.686;2023-04-29T08:35:39;18.40;99.90
48535;DHT22;34323;52.022;5.686;2023-04-29T08:38:05;18.50;99.90
48535;DHT22;34323;52.022;5.686;2023-04-29T08:40:34;18.70;99.90
48535;DHT22;34323;52.022;5.686;2023-04-29T08:43:02;18.60;99.90
48535;DHT22;34323;52.022;5.686;2023-04-29T08:45:28;18.50;99.90
48535;DHT22;34323;52.022;5.686;2023-04-29T08:47:55;18.30;99.90
48535;DHT22;34323;52.022;5.686;2023-04-29T08:50:23;18.10;99.90
48535;DHT22;34323;52.022;5.686;2023-04-29T08:52:49;17.80;99.90
48535;DHT22;34323;52.022;5.686;2023-04-29T08:55:16;18.10;99.90
48535;DHT22;34323;52.022;5.686;2023-04-29T08:57:43;18.30;99.90
48535;DHT22;34323;52.022;5.686;2023-04-29T09:00:11;18.60;99.90
48535;DHT22;34323;52.022;5.686;2023-04-29T09:02:45;18.70;99.90
48535;DHT22;34323;52.022;5.686;2023-04-29T09:05:11;18.80;99.90
48535;DHT22;34323;52.022;5.686;2023-04-29T09:07:38;19.30;99.90
48535;DHT22;34323;52.022;5.686;2023-04-29T09:10:07;19.30;99.90
48535;DHT22;34323;52.022;5.686;2023-04-29T09:12:33;19.20;99.90
48535;DHT22;34323;52.022;5.686;2023-04-29T09:15:00;19.30;99.90
48535;DHT22;34323;52.022;5.686;2023-04-29T09:22:52;19.20;99.90
48535;DHT22;34323;52.022;5.686;2023-04-29T09:25:18;19.40;99.90
48535;DHT22;34323;52.022;5.686;2023-04-29T09:27:45;19.10;99.90
48535;DHT22;34323;52.022;5.686;2023-04-29T09:30:11;19.00;99.90
48535;DHT22;34323;52.022;5.686;2023-04-29T09:32:38;18.80;99.90
48535;DHT22;34323;52.022;5.686;2023-04-29T09:35:22;18.70;99.90
48535;DHT22;34323;52.022;5.686;2023-04-29T09:38:08;18.70;99.90
48535;DHT22;34323;52.022;5.686;2023-04-29T09:40:34;18.80;99.90
48535;DHT22;34323;52.022;5.686;2023-04-29T09:43:01;18.80;99.90
48535;DHT22;34323;52.022;5.686;2023-04-29T09:45:34;19.20;99.90
48535;DHT22;34323;52.022;5.686;2023-04-29T09:48:04;19.00;99.90
48535;DHT22;34323;52.022;5.686;2023-04-29T09:50:33;19.00;99.90
48535;DHT22;34323;52.022;5.686;2023-04-29T09:53:02;18.60;99.90
48535;DHT22;34323;52.022;5.686;2023-04-29T09:55:28;18.90;99.90
48535;DHT22;34323;52.022;5.686;2023-04-29T09:57:54;19.20;99.90
48535;DHT22;34323;52.022;5.686;2023-04-29T10:00:20;19.20;99.90
48535;DHT22;34323;52.022;5.686;2023-04-29T10:02:47;19.50;99.90
48535;DHT22;34323;52.022;5.686;2023-04-29T10:05:16;19.60;99.90
48535;DHT22;34323;52.022;5.686;2023-04-29T10:07:45;19.50;99.90
48535;DHT22;34323;52.022;5.686;2023-04-29T10:10:12;19.20;99.90
48535;DHT22;34323;52.022;5.686;2023-04-29T10:12:39;19.30;99.90
48535;DHT22;34323;52.022;5.686;2023-04-29T10:18:13;19.10;99.90
48535;DHT22;34323;52.022;5.686;2023-04-29T10:20:44;19.20;99.90
48535;DHT22;34323;52.022;5.686;2023-04-29T10:23:12;19.30;99.90
48535;DHT22;34323;52.022;5.686;2023-04-29T10:25:39;19.60;99.90
48535;DHT22;34323;52.022;5.686;2023-04-29T10:28:09;19.80;99.90
48535;DHT22;34323;52.022;5.686;2023-04-29T10:30:38;19.60;99.90
48535;DHT22;34323;52.022;5.686;2023-04-29T10:33:05;19.60;99.90
48535;DHT22;34323;52.022;5.686;2023-04-29T10:35:32;19.90;99.90
48535;DHT22;34323;52.022;5.686;2023-04-29T10:37:59;20.00;99.90
48535;DHT22;34323;52.022;5.686;2023-04-29T10:40:41;19.90;99.90
48535;DHT22;34323;52.022;5.686;2023-04-29T10:43:09;19.80;99.90
48535;DHT22;34323;52.022;5.686;2023-04-29T10:45:35;19.90;99.90
48535;DHT22;34323;52.022;5.686;2023-04-29T10:50:28;19.90;99.90
48535;DHT22;34323;52.022;5.686;2023-04-29T10:52:57;19.80;99.90
48535;DHT22;34323;52.022;5.686;2023-04-29T10:55:23;20.00;99.90
48535;DHT22;34323;52.022;5.686;2023-04-29T10:57:52;20.30;99.90
48535;DHT22;34323;52.022;5.686;2023-04-29T11:00:21;20.30;99.90
48535;DHT22;34323;52.022;5.686;2023-04-29T11:02:47;20.70;99.90
48535;DHT22;34323;52.022;5.686;2023-04-29T11:05:13;21.20;99.90
48535;DHT22;34323;52.022;5.686;2023-04-29T11:07:40;21.10;99.90
48535;DHT22;34323;52.022;5.686;2023-04-29T11:10:06;21.20;99.90
48535;DHT22;34323;52.022;5.686;2023-04-29T11:12:32;21.50;99.90
48535;DHT22;34323;52.022;5.686;2023-04-29T11:14:57;21.70;99.90
48535;DHT22;34323;52.022;5.686;2023-04-29T11:17:34;21.90;99.90
48535;DHT22;34323;52.022;5.686;2023-04-29T11:20:09;21.70;99.90
48535;DHT22;34323;52.022;5.686;2023-04-29T11:22:34;21.80;99.90
48535;DHT22;34323;52.022;5.686;2023-04-29T11:25:05;21.60;99.90
48535;DHT22;34323;52.022;5.686;2023-04-29T11:27:34;21.90;99.90
48535;DHT22;34323;52.022;5.686;2023-04-29T11:30:01;22.30;99.90
48535;DHT22;34323;52.022;5.686;2023-04-29T11:32:31;22.50;99.90
48535;DHT22;34323;52.022;5.686;2023-04-29T11:35:07;22.50;99.90
48535;DHT22;34323;52.022;5.686;2023-04-29T11:37:34;22.40;99.90
48535;DHT22;34323;52.022;5.686;2023-04-29T11:40:00;22.30;99.90
48535;DHT22;34323;52.022;5.686;2023-04-29T11:42:26;22.10;99.90
48535;DHT22;34323;52.022;5.686;2023-04-29T11:44:53;21.70;99.90
48535;DHT22;34323;52.022;5.686;2023-04-29T11:47:19;21.50;99.90
48535;DHT22;34323;52.022;5.686;2023-04-29T11:49:46;21.50;99.90
48535;DHT22;34323;52.022;5.686;2023-04-29T11:52:12;21.50;99.90
48535;DHT22;34323;52.022;5.686;2023-04-29T11:54:39;21.20;99.90
48535;DHT22;34323;52.022;5.686;2023-04-29T11:57:05;21.00;99.90
48535;DHT22;34323;52.022;5.686;2023-04-29T11:59:31;21.10;99.90
48535;DHT22;34323;52.022;5.686;2023-04-29T12:02:00;21.20;99.90
48535;DHT22;34323;52.022;5.686;2023-04-29T12:04:25;21.20;99.90
48535;DHT22;34323;52.022;5.686;2023-04-29T12:06:51;21.70;99.90
48535;DHT22;34323;52.022;5.686;2023-04-29T12:09:20;21.80;99.90
48535;DHT22;34323;52.022;5.686;2023-04-29T12:11:48;22.00;99.90
48535;DHT22;34323;52.022;5.686;2023-04-29T12:14:16;22.00;99.90
48535;DHT22;34323;52.022;5.686;2023-04-29T12:16:43;22.30;99.90
48535;DHT22;34323;52.022;5.686;2023-04-29T12:19:10;22.20;99.90
48535;DHT22;34323;52.022;5.686;2023-04-29T12:21:36;22.10;99.90
48535;DHT22;34323;52.022;5.686;2023-04-29T12:24:02;22.50;99.90
48535;DHT22;34323;52.022;5.686;2023-04-29T12:26:29;22.30;99.90
48535;DHT22;34323;52.022;5.686;2023-04-29T12:28:57;22.30;99.90
48535;DHT22;34323;52.022;5.686;2023-04-29T12:31:32;22.30;99.90
48535;DHT22;34323;52.022;5.686;2023-04-29T12:33:58;22.20;99.90
48535;DHT22;34323;52.022;5.686;2023-04-29T12:36:24;22.20;99.90
48535;DHT22;34323;52.022;5.686;2023-04-29T12:38:50;22.40;99.90
48535;DHT22;34323;52.022;5.686;2023-04-29T12:41:18;22.90;99.90
48535;DHT22;34323;52.022;5.686;2023-04-29T12:43:45;23.20;99.90
48535;DHT22;34323;52.022;5.686;2023-04-29T12:46:14;23.40;99.90
48535;DHT22;34323;52.022;5.686;2023-04-29T12:48:40;23.20;99.90
48535;DHT22;34323;52.022;5.686;2023-04-29T12:51:08;22.50;99.90
48535;DHT22;34323;52.022;5.686;2023-04-29T12:53:34;22.50;99.90
48535;DHT22;34323;52.022;5.686;2023-04-29T12:56:00;22.50;99.90
48535;DHT22;34323;52.022;5.686;2023-04-29T12:58:29;23.00;99.90
48535;DHT22;34323;52.022;5.686;2023-04-29T13:00:55;23.60;99.90
48535;DHT22;34323;52.022;5.686;2023-04-29T13:03:21;23.90;99.90
48535;DHT22;34323;52.022;5.686;2023-04-29T13:05:48;24.00;99.90
48535;DHT22;34323;52.022;5.686;2023-04-29T13:08:16;24.60;99.90
48535;DHT22;34323;52.022;5.686;2023-04-29T13:10:42;24.80;99.90
48535;DHT22;34323;52.022;5.686;2023-04-29T13:13:08;24.00;99.90
48535;DHT22;34323;52.022;5.686;2023-04-29T13:15:37;23.90;99.90
48535;DHT22;34323;52.022;5.686;2023-04-29T13:18:05;23.80;99.90
48535;DHT22;34323;52.022;5.686;2023-04-29T13:20:31;23.80;99.90
48535;DHT22;34323;52.022;5.686;2023-04-29T13:22:58;24.00;99.90
48535;DHT22;34323;52.022;5.686;2023-04-29T13:25:23;24.50;99.90
48535;DHT22;34323;52.022;5.686;2023-04-29T13:27:49;25.20;99.90
48535;DHT22;34323;52.022;5.686;2023-04-29T13:30:14;25.80;99.90
48535;DHT22;34323;52.022;5.686;2023-04-29T13:32:40;25.90;99.90
48535;DHT22;34323;52.022;5.686;2023-04-29T13:35:07;25.90;99.90
48535;DHT22;34323;52.022;5.686;2023-04-29T13:37:32;25.50;99.90
48535;DHT22;34323;52.022;5.686;2023-04-29T13:39:58;25.20;99.90
48535;DHT22;34323;52.022;5.686;2023-04-29T13:42:24;25.20;99.90
48535;DHT22;34323;52.022;5.686;2023-04-29T13:44:50;25.20;99.90
48535;DHT22;34323;52.022;5.686;2023-04-29T13:47:16;25.10;99.90
48535;DHT22;34323;52.022;5.686;2023-04-29T13:49:42;25.40;99.90
48535;DHT22;34323;52.022;5.686;2023-04-29T13:52:11;25.30;99.90
48535;DHT22;34323;52.022;5.686;2023-04-29T13:54:37;25.20;99.90
48535;DHT22;34323;52.022;5.686;2023-04-29T13:57:03;25.00;99.90
48535;DHT22;34323;52.022;5.686;2023-04-29T13:59:33;25.00;99.90
48535;DHT22;34323;52.022;5.686;2023-04-29T14:02:00;24.70;99.90
48535;DHT22;34323;52.022;5.686;2023-04-29T14:04:26;24.80;99.90
48535;DHT22;34323;52.022;5.686;2023-04-29T14:06:52;24.70;99.90
48535;DHT22;34323;52.022;5.686;2023-04-29T14:09:18;24.30;99.90
48535;DHT22;34323;52.022;5.686;2023-04-29T14:11:45;24.30;99.90
48535;DHT22;34323;52.022;5.686;2023-04-29T14:14:10;24.00;99.90
48535;DHT22;34323;52.022;5.686;2023-04-29T14:16:36;24.10;99.90
48535;DHT22;34323;52.022;5.686;2023-04-29T14:19:02;23.70;99.90
48535;DHT22;34323;52.022;5.686;2023-04-29T14:21:28;23.70;99.90
48535;DHT22;34323;52.022;5.686;2023-04-29T14:23:54;24.30;99.90
48535;DHT22;34323;52.022;5.686;2023-04-29T14:26:19;25.10;99.90
48535;DHT22;34323;52.022;5.686;2023-04-29T14:28:45;26.80;99.90
48535;DHT22;34323;52.022;5.686;2023-04-29T14:31:10;27.50;99.90
48535;DHT22;34323;52.022;5.686;2023-04-29T14:33:38;27.70;99.90
48535;DHT22;34323;52.022;5.686;2023-04-29T14:36:04;28.00;99.90
48535;DHT22;34323;52.022;5.686;2023-04-29T14:38:30;27.20;99.90
48535;DHT22;34323;52.022;5.686;2023-04-29T14:40:55;26.50;99.90
48535;DHT22;34323;52.022;5.686;2023-04-29T14:43:21;25.50;99.90
48535;DHT22;34323;52.022;5.686;2023-04-29T14:45:47;24.90;99.90
48535;DHT22;34323;52.022;5.686;2023-04-29T14:48:12;24.60;99.90
48535;DHT22;34323;52.022;5.686;2023-04-29T14:50:38;23.90;99.90
48535;DHT22;34323;52.022;5.686;2023-04-29T14:53:04;24.10;99.90
48535;DHT22;34323;52.022;5.686;2023-04-29T14:55:29;24.30;99.90
48535;DHT22;34323;52.022;5.686;2023-04-29T14:57:55;25.20;99.90
48535;DHT22;34323;52.022;5.686;2023-04-29T15:00:21;25.70;99.90
48535;DHT22;34323;52.022;5.686;2023-04-29T15:02:46;26.60;99.90
48535;DHT22;34323;52.022;5.686;2023-04-29T15:05:14;28.10;99.90
48535;DHT22;34323;52.022;5.686;2023-04-29T15:07:39;28.90;99.90
48535;DHT22;34323;52.022;5.686;2023-04-29T15:10:06;29.20;99.90
48535;DHT22;34323;52.022;5.686;2023-04-29T15:12:33;29.80;99.90
48535;DHT22;34323;52.022;5.686;2023-04-29T15:14:59;31.10;99.90
48535;DHT22;34323;52.022;5.686;2023-04-29T15:17:24;31.90;99.90
48535;DHT22;34323;52.022;5.686;2023-04-29T15:19:50;32.10;99.90
48535;DHT22;34323;52.022;5.686;2023-04-29T15:22:16;31.60;99.90
48535;DHT22;34323;52.022;5.686;2023-04-29T15:24:41;31.70;99.90
48535;DHT22;34323;52.022;5.686;2023-04-29T15:27:07;31.50;99.90
48535;DHT22;34323;52.022;5.686;2023-04-29T15:29:32;31.70;99.90
48535;DHT22;34323;52.022;5.686;2023-04-29T15:32:01;30.60;99.90
48535;DHT22;34323;52.022;5.686;2023-04-29T15:34:26;30.50;99.90
48535;DHT22;34323;52.022;5.686;2023-04-29T15:36:52;30.50;99.90
48535;DHT22;34323;52.022;5.686;2023-04-29T15:39:20;30.50;99.90
48535;DHT22;34323;52.022;5.686;2023-04-29T15:41:46;30.40;99.90
48535;DHT22;34323;52.022;5.686;2023-04-29T15:44:12;30.30;99.90
48535;DHT22;34323;52.022;5.686;2023-04-29T15:46:38;30.30;99.90
48535;DHT22;34323;52.022;5.686;2023-04-29T15:49:03;29.90;99.90